This is the latest recevied weather packets stored in our database for station/object NR5ON-13. If no packets are shown the sender has not sent any weather packets the latest 1 day(s).
| Time | Temp. | Humidity | Pressure | Rain* | Wind** | Luminosity | Snow |
|---|---|---|---|---|---|---|---|
| 1778036607 | 6.11° C | 85% | 1015 hPa | 1.52 mm | - | - | - |
| 1778036312 | 6.67° C | 84% | 1015 hPa | 1.52 mm | - | - | - |
| 1778036017 | 6.67° C | 83% | 1015.1 hPa | 1.27 mm | - | - | - |
| 1778035706 | 7.22° C | 83% | 1015.2 hPa | 0.76 mm | - | - | - |
| 1778035116 | 7.22° C | 82% | 1013.4 hPa | 0 mm | - | - | - |
| 1778034507 | 7.22° C | 82% | 1013.2 hPa | 0.51 mm | - | - | - |
| 1778033917 | 7.22° C | 85% | 1013 hPa | 1.78 mm | - | - | - |
| 1778033308 | 7.22° C | 84% | 1013.2 hPa | 1.78 mm | - | - | - |
| 1778033016 | 7.22° C | 83% | 1013.3 hPa | 1.78 mm | - | - | - |
| 1778032720 | 7.22° C | 82% | 1013.1 hPa | 1.78 mm | - | - | - |
| 1778032410 | 7.22° C | 82% | 1013.1 hPa | 1.78 mm | - | - | - |
| 1778031821 | 7.78° C | 80% | 1012.8 hPa | 1.78 mm | - | - | - |
| 1778031215 | 8.89° C | 74% | 1013.6 hPa | 1.52 mm | - | - | - |
| 1778030920 | 10.56° C | 63% | 1013.5 hPa | 1.27 mm | - | - | - |
| 1778030607 | 12.22° C | 54% | 1012.7 hPa | 0.25 mm | - | - | - |
| 1778030315 | 12.78° C | 51% | 1012.1 hPa | 0 mm | - | - | - |
| 1778030023 | 12.78° C | 47% | 1011.6 hPa | 0 mm | - | - | - |
| 1778029712 | 12.78° C | 47% | 1011.4 hPa | 0 mm | - | - | - |
| 1778029417 | 12.78° C | 46% | 1011.7 hPa | 0 mm | - | - | - |
| 1778029122 | 12.78° C | 46% | 1011.7 hPa | 0 mm | - | - | - |
| 1778028512 | 13.33° C | 43% | 1011.6 hPa | 0 mm | - | - | - |
| 1778028218 | 13.89° C | 42% | 1011.7 hPa | 0 mm | - | - | - |
| 1778027314 | 14.44° C | 44% | 1011.7 hPa | 0 mm | - | - | - |
| 1778027019 | 14.44° C | 42% | 1011.6 hPa | 0 mm | - | - | - |
| 1778026414 | 14.44° C | 43% | 1011.6 hPa | 0 mm | - | - | - |
* Rain latest hour (hover to see other rain measurements)
** Current wind speed in m/s (hover to see current wind gust speed)